Aberdeen Regional Airport
KABR : now visible

Airfield :











YOU CAN JOIN US ON...

 
LOGIN :

Register | Disclaimer

   EN    FR    IT 

 









Legend :    VFR   Marginal VFR   IFR   Intensive IFR   Very Intensive IFR
Visi :
Ceiling :
>= 8 km
>= 3000ft
5 to 8 km
1000 to 3000 ft
1500m to 5 km
500 to 1000 ft
800 to 1500m
200 to 500 ft
< 800m
< 200 ft
Symbols :   Thunderstorms  Fog  Heavy snow  Heavy precipitations  Wind > 20 kt






- Airport Elevation : 1302 ft
- IATA code : ABR


KABR - Aberdeen Regional

CURRENT METAR :
  • 230553Z AUTO 01004KT 8SM CLR 15/12 A2992 RMK AO2 SLP125 T01500122 10278 20144 403060078 56004

EXPIRED METARs :
  • 230453Z AUTO 05003KT 8SM CLR 16/12 A2992 RMK AO2 SLP127 T01560122
  • 230353Z AUTO 05004KT 8SM CLR 17/13 A2992 RMK AO2 SLP128 T01720133

TAF KABR
Valid from the 23 at 06:00 until the 24 at 06:00 UTC


230520Z 2306/2406 09005KT P6SM SCT250
FM231700 05008KT P6SM BKN120
FM240100 36008KT P6SM SCT250
KZMP FIR / North America



MET'MAP, your aeronautical weather chart ! - Copyright ORBIFLY December 2007 - Disclaimer

ORBIFLY MET'MAP TEAM :

Programming & Development : Alexandra Zaïnal
Concept & original design : Baudouin d'Aumeries
Assistance for programming : Marc-Olivier Méhu
Technical & hardware support : Manuel Goepfert

Contact : metmap@orbifly.com




SOURCES & CREDITS :

   NOAA       Earth
Advisory